Time;durP1;ratioP1;P1;durP2;ratioP2;P2;SDS_P1;SDS_P2;PMS_P1;PMS_P2;Temp;Humidity;BMP_temperature;BMP_pressure;BME280_temperature;BME280_humidity;BME280_pressure;Samples;Min_cycle;Max_cycle;Signal;HPM_P1;HPM_P2
2023/01/08 00:02:19;;;;;;;23.67;15.32;;;4.00;81.30;;;;;;4994211;28;20038;-62
2023/01/08 00:04:44;;;;;;;22.30;14.80;;;4.00;81.30;;;;;;4996638;28;20103;-60
2023/01/08 00:07:10;;;;;;;24.85;15.05;;;4.00;81.60;;;;;;4996009;28;20041;-61
2023/01/08 00:09:35;;;;;;;22.73;14.32;;;4.00;81.70;;;;;;4994572;28;20133;-57
2023/01/08 00:12:01;;;;;;;23.42;15.27;;;3.90;81.50;;;;;;4997466;28;20030;-60
2023/01/08 00:14:26;;;;;;;21.73;14.23;;;3.90;81.40;;;;;;4995739;28;20106;-62
2023/01/08 00:16:52;;;;;;;21.92;14.48;;;3.90;81.30;;;;;;4994728;28;20485;-61
2023/01/08 00:19:18;;;;;;;22.08;14.77;;;3.80;81.30;;;;;;4995111;28;20128;-62
2023/01/08 00:21:43;;;;;;;23.10;14.23;;;3.80;81.40;;;;;;4992407;28;20108;-62
2023/01/08 00:24:09;;;;;;;22.05;13.95;;;3.80;81.30;;;;;;4995402;28;20042;-62
2023/01/08 00:26:35;;;;;;;22.08;14.02;;;3.70;81.30;;;;;;4992736;28;20026;-62
2023/01/08 00:29:00;;;;;;;22.48;14.50;;;3.70;82.30;;;;;;4994156;28;20517;-62
2023/01/08 00:31:26;;;;;;;24.25;15.02;;;3.70;81.70;;;;;;4993945;28;20034;-62
2023/01/08 00:33:51;;;;;;;22.52;14.85;;;3.60;81.70;;;;;;4996012;28;20038;-62
2023/01/08 00:36:18;;;;;;;22.00;14.25;;;3.60;81.80;;;;;;4994988;28;20068;-62
2023/01/08 00:38:45;;;;;;;23.92;15.60;;;3.60;81.90;;;;;;4994049;28;20030;-62
2023/01/08 00:41:13;;;;;;;21.60;14.50;;;3.60;81.70;;;;;;4994494;28;20038;-62
2023/01/08 00:43:39;;;;;;;24.08;14.73;;;3.60;81.80;;;;;;4997442;28;20121;-62
2023/01/08 00:46:05;;;;;;;23.35;14.32;;;3.50;81.80;;;;;;4996773;28;20117;-62
2023/01/08 00:48:32;;;;;;;21.55;14.27;;;3.50;81.90;;;;;;4993222;28;20045;-60
2023/01/08 00:51:02;;;;;;;22.80;14.23;;;3.50;82.20;;;;;;4993740;28;20040;-62
2023/01/08 00:53:28;;;;;;;24.02;14.88;;;3.40;82.10;;;;;;4995648;28;20034;-62
2023/01/08 00:56:07;;;;;;;21.85;14.80;;;3.40;82.10;;;;;;4997705;28;20085;-61
2023/01/08 00:58:33;;;;;;;21.10;14.38;;;3.40;82.60;;;;;;4994035;28;20408;-61
2023/01/08 01:00:59;;;;;;;21.00;13.65;;;3.40;82.60;;;;;;4994804;28;20099;-60
2023/01/08 01:03:25;;;;;;;19.88;13.80;;;3.40;82.80;;;;;;4995240;28;20096;-61
2023/01/08 01:05:59;;;;;;;20.48;13.82;;;3.40;83.00;;;;;;4995321;28;20401;-61
2023/01/08 01:08:25;;;;;;;;;;;3.40;82.90;;;;;;4994919;28;20513;-60
2023/01/08 01:10:50;;;;;;;19.25;11.63;;;3.40;83.20;;;;;;4993345;28;19925;-57
2023/01/08 01:13:16;;;;;;;19.85;12.95;;;3.30;82.50;;;;;;4995035;28;20298;-58
2023/01/08 01:15:41;;;;;;;21.20;13.05;;;3.30;82.60;;;;;;4993796;28;20042;-59
2023/01/08 01:18:07;;;;;;;21.48;13.23;;;3.30;82.80;;;;;;4991847;28;20352;-59
2023/01/08 01:20:33;;;;;;;20.45;13.57;;;3.30;82.90;;;;;;4995791;28;20088;-61
2023/01/08 01:22:58;;;;;;;21.70;12.90;;;3.30;83.10;;;;;;4992871;28;20710;-58
2023/01/08 01:25:24;;;;;;;22.77;13.23;;;3.30;83.30;;;;;;4973291;28;20034;-61
2023/01/08 01:27:49;;;;;;;19.85;12.00;;;3.20;84.40;;;;;;4993027;28;20061;-60
2023/01/08 01:30:15;;;;;;;18.08;11.45;;;3.20;83.90;;;;;;4995859;28;20585;-60
2023/01/08 01:32:40;;;;;;;18.50;12.13;;;3.20;84.10;;;;;;4995607;28;20559;-61
2023/01/08 01:35:06;;;;;;;19.52;12.00;;;3.30;84.40;;;;;;4995691;28;20034;-61
2023/01/08 01:37:32;;;;;;;19.65;12.55;;;3.30;84.30;;;;;;4994480;28;20037;-60
2023/01/08 01:39:58;;;;;;;21.05;12.82;;;3.30;84.20;;;;;;4993933;28;20397;-61
2023/01/08 01:42:38;;;;;;;18.58;12.73;;;3.30;84.20;;;;;;4994568;28;20042;-60
2023/01/08 01:45:16;;;;;;;19.60;12.65;;;3.40;84.10;;;;;;4994972;28;20034;-61
2023/01/08 01:47:45;;;;;;;19.95;12.88;;;3.40;83.80;;;;;;4994149;28;20262;-60
2023/01/08 01:50:36;;;;;;;18.40;12.35;;;3.40;83.50;;;;;;4993528;28;20576;-61
2023/01/08 01:53:11;;;;;;;16.90;11.25;;;3.40;83.60;;;;;;4994817;28;20044;-60
2023/01/08 01:55:42;;;;;;;15.77;11.23;;;3.40;83.50;;;;;;4995368;28;20034;-60
2023/01/08 01:58:14;;;;;;;17.15;11.60;;;3.30;83.50;;;;;;4978694;28;20110;-61
2023/01/08 02:00:40;;;;;;;19.88;11.80;;;3.30;83.90;;;;;;4996346;28;20469;-62
2023/01/08 02:03:11;;;;;;;17.42;11.93;;;3.30;83.90;;;;;;4999067;28;20153;-62
2023/01/08 02:06:04;;;;;;;18.45;11.32;;;3.30;83.70;;;;;;4996574;28;20045;-59
2023/01/08 02:08:39;;;;;;;16.40;11.20;;;3.30;83.70;;;;;;4993411;28;20053;-61
2023/01/08 02:11:17;;;;;;;18.15;11.52;;;3.30;83.50;;;;;;4998546;28;20129;-62
2023/01/08 02:13:55;;;;;;;16.40;10.98;;;3.30;83.40;;;;;;4998263;28;20068;-61
2023/01/08 02:16:43;;;;;;;18.45;11.60;;;3.30;83.30;;;;;;4997096;28;20500;-61
2023/01/08 02:19:43;;;;;;;18.27;11.57;;;3.30;83.30;;;;;;4997313;28;20028;-62
2023/01/08 02:22:54;;;;;;;17.63;11.27;;;3.30;83.70;;;;;;4981112;28;20042;-62
2023/01/08 02:25:34;;;;;;;18.58;11.07;;;3.20;83.60;;;;;;4981885;28;20038;-62
2023/01/08 02:28:02;;;;;;;16.55;11.43;;;3.20;83.90;;;;;;5000500;28;20044;-62
2023/01/08 02:30:29;;;;;;;16.70;10.90;;;3.20;83.70;;;;;;5000265;28;20049;-61
2023/01/08 02:32:54;;;;;;;18.15;11.45;;;3.20;83.80;;;;;;5001206;28;20041;-62
2023/01/08 02:35:20;;;;;;;17.48;11.40;;;3.20;83.80;;;;;;4999819;28;20050;-62
2023/01/08 02:37:45;;;;;;;15.70;11.27;;;3.30;84.00;;;;;;4998192;28;20509;-62
2023/01/08 02:40:32;;;;;;;16.48;11.05;;;3.30;83.90;;;;;;4996978;28;20046;-61
2023/01/08 02:43:11;;;;;;;16.67;11.02;;;3.30;84.10;;;;;;4996585;28;20041;-62
2023/01/08 02:45:49;;;;;;;18.02;11.82;;;3.30;84.10;;;;;;4996176;28;20118;-60
2023/01/08 02:48:32;;;;;;;18.58;11.52;;;3.40;84.10;;;;;;4993721;28;20045;-62
2023/01/08 02:51:04;;;;;;;18.38;11.48;;;3.40;84.30;;;;;;4997236;28;20058;-62
2023/01/08 02:53:45;;;;;;;18.70;12.45;;;3.40;84.30;;;;;;4999768;28;20031;-62
2023/01/08 02:56:15;;;;;;;18.17;11.43;;;3.40;84.20;;;;;;4997226;28;20117;-61
2023/01/08 02:58:42;;;;;;;17.20;11.15;;;3.40;84.00;;;;;;4997440;28;20060;-61
2023/01/08 03:01:10;;;;;;;18.27;11.88;;;3.50;84.00;;;;;;4997918;28;20415;-61
2023/01/08 03:03:39;;;;;;;17.08;11.65;;;3.50;84.10;;;;;;5000958;28;20045;-61
2023/01/08 03:06:08;;;;;;;17.95;11.80;;;3.50;84.10;;;;;;4998251;28;20171;-58
2023/01/08 03:08:38;;;;;;;17.58;11.23;;;3.50;84.10;;;;;;4995432;28;20050;-60
2023/01/08 03:11:09;;;;;;;20.48;11.52;;;3.50;84.00;;;;;;4995814;28;20180;-60
2023/01/08 03:14:05;;;;;;;16.90;10.57;;;3.50;83.90;;;;;;4995208;28;20582;-62
2023/01/08 03:16:54;;;;;;;22.08;12.73;;;3.60;84.00;;;;;;4995414;28;21006;-60
2023/01/08 03:19:29;;;;;;;17.20;10.93;;;3.60;83.90;;;;;;4983023;28;20352;-61
2023/01/08 03:21:56;;;;;;;20.52;12.18;;;3.60;83.70;;;;;;4980789;28;20045;-60
2023/01/08 03:24:25;;;;;;;24.75;13.32;;;3.60;83.50;;;;;;4998329;28;20043;-60
2023/01/08 03:26:55;;;;;;;24.05;13.63;;;3.60;83.40;;;;;;4997350;28;20375;-59
2023/01/08 03:29:23;;;;;;;23.00;12.85;;;3.60;83.50;;;;;;4996640;28;20038;-60
2023/01/08 03:31:51;;;;;;;22.70;12.93;;;3.60;83.50;;;;;;4985671;28;20042;-59
2023/01/08 03:34:19;;;;;;;21.73;12.68;;;3.60;83.40;;;;;;4993983;28;20034;-59
2023/01/08 03:36:48;;;;;;;21.85;12.48;;;3.50;83.30;;;;;;4995969;28;20539;-59
2023/01/08 03:39:28;;;;;;;20.20;12.70;;;3.50;83.30;;;;;;4998306;28;20046;-60
2023/01/08 03:42:00;;;;;;;21.00;12.82;;;3.50;83.50;;;;;;4998811;28;20081;-58
2023/01/08 03:44:26;;;;;;;22.40;12.85;;;3.50;84.40;;;;;;4997326;28;20042;-60
2023/01/08 03:46:54;;;;;;;21.75;13.40;;;3.50;83.50;;;;;;4997367;28;20591;-58
2023/01/08 03:49:22;;;;;;;22.77;13.38;;;3.50;83.70;;;;;;4995785;28;20050;-61
2023/01/08 03:51:47;;;;;;;22.17;13.13;;;3.50;83.90;;;;;;4997291;28;20509;-59
2023/01/08 03:54:16;;;;;;;20.40;12.75;;;3.50;83.90;;;;;;4999440;28;20041;-59
2023/01/08 03:56:42;;;;;;;25.88;14.15;;;3.50;83.90;;;;;;4995447;28;20065;-59
2023/01/08 03:59:08;;;;;;;25.40;13.73;;;3.50;83.90;;;;;;4997526;28;20119;-60
2023/01/08 04:01:34;;;;;;;25.08;13.65;;;3.40;83.90;;;;;;4996710;28;20045;-59
2023/01/08 04:04:00;;;;;;;24.13;13.32;;;3.40;84.00;;;;;;4996561;28;20144;-60
2023/01/08 04:06:25;;;;;;;20.50;12.73;;;3.40;84.20;;;;;;4996074;28;20084;-59
2023/01/08 04:08:51;;;;;;;16.80;11.35;;;3.40;84.30;;;;;;4995854;28;20113;-60
2023/01/08 04:11:16;;;;;;;17.73;10.90;;;3.40;84.40;;;;;;4997615;28;20092;-62
2023/01/08 04:13:42;;;;;;;16.50;11.40;;;3.30;84.40;;;;;;4996630;28;20038;-61
2023/01/08 04:16:07;;;;;;;16.30;11.52;;;3.40;84.80;;;;;;4993490;28;20413;-62
2023/01/08 04:18:33;;;;;;;18.80;11.82;;;3.40;84.90;;;;;;4996374;28;20045;-62
2023/01/08 04:20:59;;;;;;;15.35;10.82;;;3.40;85.00;;;;;;4999257;28;20042;-62
2023/01/08 04:23:25;;;;;;;16.35;10.90;;;3.40;85.00;;;;;;4997531;28;20053;-62
2023/01/08 04:25:51;;;;;;;14.73;10.70;;;3.50;85.10;;;;;;4997805;28;20038;-62
2023/01/08 04:28:17;;;;;;;16.50;11.23;;;3.50;85.10;;;;;;4998584;28;20040;-62
2023/01/08 04:30:43;;;;;;;19.27;11.40;;;3.50;85.10;;;;;;4996841;28;20029;-62
2023/01/08 04:33:09;;;;;;;17.10;11.18;;;3.50;85.10;;;;;;4995071;28;20026;-61
2023/01/08 04:35:35;;;;;;;16.85;11.20;;;3.50;85.10;;;;;;4995654;28;20034;-60
2023/01/08 04:38:00;;;;;;;18.80;11.65;;;3.60;85.30;;;;;;4998899;28;21071;-61
2023/01/08 04:40:26;;;;;;;17.20;11.10;;;3.60;85.30;;;;;;4998053;28;20046;-62
2023/01/08 04:42:51;;;;;;;17.23;11.55;;;3.70;85.30;;;;;;4995714;28;20036;-59
2023/01/08 04:45:17;;;;;;;15.77;11.02;;;3.70;86.00;;;;;;4995608;28;20042;-61
2023/01/08 04:47:43;;;;;;;17.23;11.02;;;3.70;84.90;;;;;;4996897;28;20038;-60
2023/01/08 04:50:09;;;;;;;16.30;11.73;;;3.70;84.80;;;;;;4992495;28;20030;-58
2023/01/08 04:52:34;;;;;;;16.77;11.10;;;3.70;84.90;;;;;;4994929;28;20037;-59
2023/01/08 04:55:00;;;;;;;15.43;11.07;;;3.80;84.90;;;;;;4996206;28;20029;-60
2023/01/08 04:57:26;;;;;;;15.25;10.30;;;3.80;84.90;;;;;;4996360;28;20034;-59
2023/01/08 04:59:51;;;;;;;16.80;11.10;;;3.80;84.80;;;;;;4993973;28;20077;-60
2023/01/08 05:02:17;;;;;;;15.40;10.63;;;3.80;84.70;;;;;;4994447;28;20068;-59
2023/01/08 05:04:42;;;;;;;16.00;11.13;;;3.80;85.40;;;;;;4996765;28;20080;-60
2023/01/08 05:07:08;;;;;;;15.90;11.13;;;3.80;84.60;;;;;;4996430;28;20041;-60
2023/01/08 05:09:34;;;;;;;15.77;11.10;;;3.90;84.40;;;;;;4992895;28;20064;-61
2023/01/08 05:11:59;;;;;;;15.43;10.00;;;3.90;84.20;;;;;;4995738;28;20053;-61
2023/01/08 05:14:25;;;;;;;15.00;10.48;;;3.80;84.10;;;;;;4992649;28;20431;-60
2023/01/08 05:16:50;;;;;;;18.48;10.77;;;3.80;84.30;;;;;;4992187;28;20035;-60
2023/01/08 05:19:16;;;;;;;12.82;9.65;;;3.80;84.40;;;;;;4993995;28;20056;-60
2023/01/08 05:21:42;;;;;;;15.48;10.55;;;3.80;84.40;;;;;;4992277;28;20045;-61
2023/01/08 05:24:08;;;;;;;15.75;10.50;;;3.80;84.50;;;;;;4993712;28;20425;-60
2023/01/08 05:26:34;;;;;;;14.20;10.45;;;3.80;84.50;;;;;;4993567;28;20092;-60
2023/01/08 05:28:59;;;;;;;16.90;10.52;;;3.90;84.60;;;;;;4992645;28;21340;-59
2023/01/08 05:31:25;;;;;;;14.55;10.32;;;3.80;84.60;;;;;;4991884;28;20042;-62
2023/01/08 05:33:51;;;;;;;16.73;10.95;;;3.80;84.60;;;;;;4992544;28;20042;-58
2023/01/08 05:36:17;;;;;;;17.65;11.40;;;3.80;84.70;;;;;;4994170;28;20578;-61
2023/01/08 05:38:42;;;;;;;17.40;11.00;;;3.80;84.70;;;;;;4990365;28;20046;-61
2023/01/08 05:41:09;;;;;;;16.40;11.57;;;3.80;84.70;;;;;;4992206;28;20111;-62
2023/01/08 05:43:35;;;;;;;16.42;11.45;;;3.90;84.80;;;;;;4995775;28;20042;-61
2023/01/08 05:46:02;;;;;;;19.33;13.85;;;3.90;84.80;;;;;;4996108;28;20038;-61
2023/01/08 05:48:29;;;;;;;15.85;11.43;;;3.90;85.00;;;;;;5002043;28;20042;-61
2023/01/08 05:50:54;;;;;;;16.35;11.30;;;3.90;84.90;;;;;;4997023;28;20030;-59
2023/01/08 05:53:20;;;;;;;20.17;14.68;;;3.90;84.90;;;;;;4996604;28;20076;-61
2023/01/08 05:55:46;;;;;;;16.30;11.40;;;3.90;85.10;;;;;;4996191;28;20046;-59
2023/01/08 05:58:12;;;;;;;15.27;11.07;;;4.00;84.90;;;;;;4997782;28;20754;-61
2023/01/08 06:00:38;;;;;;;15.77;10.82;;;4.00;84.90;;;;;;4995452;28;20046;-62
2023/01/08 06:03:04;;;;;;;16.75;11.52;;;4.00;84.90;;;;;;5002505;28;20045;-60
2023/01/08 06:05:31;;;;;;;16.27;10.80;;;4.00;85.00;;;;;;5001300;28;20040;-60
2023/01/08 06:07:57;;;;;;;14.73;10.88;;;4.00;85.00;;;;;;5000808;28;20590;-62
2023/01/08 06:10:24;;;;;;;17.38;12.25;;;4.00;85.10;;;;;;5002618;28;20120;-62
2023/01/08 06:12:49;;;;;;;18.15;12.05;;;4.00;85.10;;;;;;5001265;28;20025;-62
2023/01/08 06:15:15;;;;;;;22.33;13.18;;;4.00;85.10;;;;;;5000451;28;20027;-62
2023/01/08 06:17:41;;;;;;;23.17;14.02;;;4.00;85.00;;;;;;5000324;28;20031;-61
2023/01/08 06:20:07;;;;;;;20.13;13.35;;;4.00;85.00;;;;;;4997963;28;20058;-61
2023/01/08 06:22:33;;;;;;;20.55;12.00;;;4.00;85.10;;;;;;4999916;28;20038;-62
2023/01/08 06:24:58;;;;;;;20.10;13.40;;;4.00;85.10;;;;;;4997285;28;20395;-62
2023/01/08 06:27:24;;;;;;;21.90;13.00;;;4.10;85.10;;;;;;4999851;28;20599;-62
2023/01/08 06:29:50;;;;;;;19.13;12.70;;;4.00;85.10;;;;;;4999394;28;20062;-62
2023/01/08 06:32:15;;;;;;;18.30;12.30;;;4.10;85.10;;;;;;4995318;28;20038;-62
2023/01/08 06:34:41;;;;;;;17.38;12.18;;;4.00;85.10;;;;;;4996261;28;20089;-61
2023/01/08 06:37:06;;;;;;;16.95;11.43;;;4.00;85.20;;;;;;4993548;28;20041;-61
2023/01/08 06:39:32;;;;;;;17.00;11.57;;;4.10;85.40;;;;;;4996051;28;20037;-61
2023/01/08 06:41:57;;;;;;;18.67;13.02;;;4.10;85.40;;;;;;4998223;28;20804;-61
2023/01/08 06:44:24;;;;;;;17.23;12.10;;;4.10;85.40;;;;;;4996059;28;20050;-62
2023/01/08 06:46:50;;;;;;;16.75;12.13;;;4.10;85.40;;;;;;4997752;28;20061;-62
2023/01/08 06:49:16;;;;;;;16.85;12.05;;;4.10;85.30;;;;;;4997973;28;20064;-61
2023/01/08 06:51:42;;;;;;;17.08;12.10;;;4.10;85.30;;;;;;4996750;28;20070;-62
2023/01/08 06:54:07;;;;;;;16.73;11.43;;;4.20;85.40;;;;;;5000609;28;20583;-61
2023/01/08 06:56:33;;;;;;;17.80;12.27;;;4.20;85.40;;;;;;4999057;28;20125;-62
2023/01/08 06:58:59;;;;;;;18.45;12.43;;;4.20;85.50;;;;;;4999765;28;20124;-62
2023/01/08 07:01:24;;;;;;;17.60;12.10;;;4.30;85.60;;;;;;4995484;28;20493;-62
2023/01/08 07:03:50;;;;;;;20.88;14.07;;;4.20;85.40;;;;;;4999544;28;20133;-62
2023/01/08 07:06:18;;;;;;;20.80;14.25;;;4.20;85.50;;;;;;4995088;28;20038;-59
2023/01/08 07:08:44;;;;;;;21.45;14.93;;;4.30;85.60;;;;;;4996002;28;20125;-61
2023/01/08 07:11:10;;;;;;;21.05;15.02;;;4.30;85.60;;;;;;4997750;28;20134;-60
2023/01/08 07:13:36;;;;;;;22.58;15.40;;;4.30;85.70;;;;;;4997847;28;20038;-60
2023/01/08 07:16:06;;;;;;;26.15;17.42;;;4.30;85.70;;;;;;4998242;28;20041;-62
2023/01/08 07:18:31;;;;;;;32.45;19.15;;;4.40;85.80;;;;;;4998238;28;20048;-59
2023/01/08 07:20:57;;;;;;;29.58;18.83;;;4.40;85.80;;;;;;4998463;28;20046;-60
2023/01/08 07:23:22;;;;;;;28.10;16.85;;;4.40;85.70;;;;;;4995136;28;20041;-61
2023/01/08 07:25:48;;;;;;;21.83;14.52;;;4.50;85.80;;;;;;4996895;28;20493;-58
2023/01/08 07:28:14;;;;;;;18.73;12.48;;;4.50;85.80;;;;;;4997612;28;20048;-61
2023/01/08 07:30:39;;;;;;;17.77;11.75;;;4.50;85.80;;;;;;4995797;28;20034;-61
2023/01/08 07:33:05;;;;;;;16.48;10.52;;;4.50;85.80;;;;;;4995693;28;20042;-59
2023/01/08 07:35:30;;;;;;;15.23;10.27;;;4.60;86.00;;;;;;4995106;28;20046;-57
2023/01/08 07:37:56;;;;;;;16.63;10.57;;;4.60;86.10;;;;;;4995038;28;20049;-60
2023/01/08 07:40:21;;;;;;;20.50;13.18;;;4.60;86.30;;;;;;4993611;28;20091;-61
2023/01/08 07:42:47;;;;;;;24.33;15.20;;;4.70;86.40;;;;;;4988625;28;20375;-62
2023/01/08 07:45:13;;;;;;;24.88;16.05;;;4.70;86.30;;;;;;4991972;28;20425;-59
2023/01/08 07:47:38;;;;;;;22.92;15.52;;;4.70;86.00;;;;;;4997128;28;20030;-62
2023/01/08 07:50:04;;;;;;;23.50;15.73;;;4.80;86.00;;;;;;4992566;28;20701;-59
2023/01/08 07:52:30;;;;;;;24.20;15.50;;;4.80;86.00;;;;;;4998676;28;20062;-62
2023/01/08 07:54:55;;;;;;;26.17;16.83;;;4.80;85.90;;;;;;4972344;28;20591;-62
2023/01/08 07:57:21;;;;;;;27.25;17.40;;;4.80;86.00;;;;;;4987929;28;20504;-61
2023/01/08 07:59:46;;;;;;;26.67;17.98;;;4.80;86.00;;;;;;4992880;28;20045;-60
2023/01/08 08:02:12;;;;;;;94.35;48.00;;;4.80;86.10;;;;;;4994591;28;20038;-60
2023/01/08 08:04:38;;;;;;;38.60;25.27;;;4.80;86.20;;;;;;4993231;28;20485;-62
2023/01/08 08:07:03;;;;;;;30.30;19.20;;;4.80;86.30;;;;;;4995940;28;20041;-62
2023/01/08 08:09:29;;;;;;;25.98;16.88;;;4.80;86.30;;;;;;4995459;28;20513;-62
2023/01/08 08:11:54;;;;;;;25.40;17.02;;;4.90;86.30;;;;;;4997544;28;20057;-62
2023/01/08 08:14:20;;;;;;;25.90;16.77;;;4.90;86.30;;;;;;4998221;28;20033;-62
2023/01/08 08:16:46;;;;;;;23.15;15.85;;;4.90;86.40;;;;;;4996915;28;20041;-62
2023/01/08 08:19:11;;;;;;;25.88;15.90;;;4.90;86.50;;;;;;4995735;28;20552;-61
2023/01/08 08:21:37;;;;;;;23.63;16.27;;;5.00;86.60;;;;;;4996756;28;20046;-62
2023/01/08 08:24:03;;;;;;;24.35;15.60;;;5.00;86.70;;;;;;4994857;28;20030;-62
2023/01/08 08:26:29;;;;;;;23.10;15.65;;;5.00;87.00;;;;;;4991938;28;20582;-62
2023/01/08 08:28:55;;;;;;;16.95;12.68;;;5.00;87.20;;;;;;4991296;28;20069;-62
2023/01/08 08:31:21;;;;;;;21.05;14.00;;;5.10;87.30;;;;;;4994581;28;20107;-61
2023/01/08 08:33:46;;;;;;;16.75;11.98;;;5.10;87.40;;;;;;4998352;28;20038;-59
2023/01/08 08:36:12;;;;;;;20.45;12.05;;;5.10;87.30;;;;;;4996011;28;20026;-60
2023/01/08 08:38:38;;;;;;;17.95;12.60;;;5.10;87.20;;;;;;4996735;28;20571;-60
2023/01/08 08:41:04;;;;;;;27.42;18.27;;;5.10;87.30;;;;;;4995200;28;20112;-61
2023/01/08 08:43:30;;;;;;;24.13;16.65;;;5.20;87.50;;;;;;4991291;28;21675;-60
2023/01/08 08:45:56;;;;;;;24.80;16.30;;;5.20;88.00;;;;;;4996421;28;20042;-61
2023/01/08 08:48:22;;;;;;;26.75;17.42;;;5.20;87.70;;;;;;4998463;28;20459;-61
2023/01/08 08:50:48;;;;;;;28.00;17.33;;;5.30;87.90;;;;;;4994377;28;20560;-61
2023/01/08 08:53:14;;;;;;;23.30;16.35;;;5.40;87.90;;;;;;4997482;28;20041;-61
2023/01/08 08:55:39;;;;;;;25.20;16.77;;;5.40;87.90;;;;;;4998070;28;20042;-61
2023/01/08 08:58:11;;;;;;;29.27;17.67;;;5.50;88.20;;;;;;4998244;28;20037;-59
2023/01/08 09:00:38;;;;;;;20.98;16.05;;;5.50;88.40;;;;;;4996851;28;20049;-61
2023/01/08 09:03:03;;;;;;;18.75;12.32;;;5.60;88.20;;;;;;4990862;28;20108;-60
2023/01/08 09:05:29;;;;;;;13.15;9.40;;;5.60;88.20;;;;;;4996088;28;20528;-61
2023/01/08 09:07:55;;;;;;;10.30;8.32;;;5.70;88.40;;;;;;4999946;28;20044;-61
2023/01/08 09:10:22;;;;;;;8.45;7.07;;;5.80;88.70;;;;;;4997550;28;20038;-60
2023/01/08 09:12:48;;;;;;;10.02;7.45;;;5.90;88.90;;;;;;4997535;28;20046;-61
2023/01/08 09:15:14;;;;;;;11.05;7.60;;;5.90;89.10;;;;;;4992714;28;20034;-61
2023/01/08 09:17:39;;;;;;;9.10;7.45;;;6.00;89.20;;;;;;4978216;28;20052;-62
2023/01/08 09:20:05;;;;;;;9.82;7.35;;;6.10;89.30;;;;;;4997930;28;20065;-62
2023/01/08 09:22:31;;;;;;;13.90;9.02;;;6.20;89.40;;;;;;4994717;28;20582;-64
2023/01/08 09:24:57;;;;;;;16.27;10.10;;;6.30;89.40;;;;;;4992131;28;21605;-63
2023/01/08 09:27:22;;;;;;;16.52;11.00;;;6.40;89.40;;;;;;4996365;28;20038;-60
2023/01/08 09:29:48;;;;;;;14.23;9.60;;;6.40;89.40;;;;;;4998320;28;20390;-61
2023/01/08 09:32:14;;;;;;;11.45;8.68;;;6.50;89.40;;;;;;4995910;28;20045;-61
2023/01/08 09:34:39;;;;;;;10.80;8.50;;;6.60;89.70;;;;;;4994473;28;20044;-60
2023/01/08 09:37:06;;;;;;;10.25;7.72;;;6.60;89.90;;;;;;4995113;28;20038;-62
2023/01/08 09:39:32;;;;;;;10.43;7.38;;;6.70;90.00;;;;;;4995484;28;20038;-62
2023/01/08 09:42:02;;;;;;;11.27;8.50;;;6.80;90.20;;;;;;4997655;28;20046;-61
2023/01/08 09:44:34;;;;;;;11.25;8.50;;;6.90;90.30;;;;;;4995792;28;20402;-59
2023/01/08 09:47:00;;;;;;;9.85;7.60;;;6.90;90.40;;;;;;4994135;28;20616;-61
2023/01/08 09:49:42;;;;;;;14.00;7.97;;;7.00;90.30;;;;;;4994920;28;20103;-61
2023/01/08 09:52:11;;;;;;;10.00;7.47;;;7.10;90.20;;;;;;4997272;28;20042;-62
2023/01/08 09:54:37;;;;;;;11.93;9.00;;;7.20;90.10;;;;;;4995623;28;20105;-62
2023/01/08 09:57:03;;;;;;;11.60;8.85;;;7.30;90.00;;;;;;4993215;28;20042;-62
2023/01/08 09:59:29;;;;;;;11.25;8.93;;;7.30;89.90;;;;;;4994253;28;20038;-61
2023/01/08 10:01:55;;;;;;;12.25;9.95;;;7.40;89.90;;;;;;4996296;28;20632;-61
2023/01/08 10:04:24;;;;;;;11.88;9.88;;;7.40;90.20;;;;;;4993592;28;20099;-61
2023/01/08 10:07:10;;;;;;;6.82;5.10;;;7.50;89.90;;;;;;4993626;28;20053;-61
2023/01/08 10:09:36;;;;;;;6.65;5.20;;;7.50;90.00;;;;;;4997000;28;20030;-61
2023/01/08 10:12:05;;;;;;;7.35;5.85;;;7.60;90.00;;;;;;4996094;28;20121;-61
2023/01/08 10:14:46;;;;;;;6.82;5.70;;;7.70;90.10;;;;;;4996697;28;20034;-62
2023/01/08 10:17:26;;;;;;;7.05;5.35;;;7.80;90.20;;;;;;4993798;28;20034;-61
2023/01/08 10:19:51;;;;;;;5.80;5.15;;;7.90;90.10;;;;;;4995552;28;20042;-62
2023/01/08 10:22:21;;;;;;;7.88;5.90;;;7.90;89.70;;;;;;4994436;28;20038;-60
2023/01/08 10:24:47;;;;;;;6.82;5.45;;;8.00;89.70;;;;;;4993977;28;20489;-61
2023/01/08 10:27:14;;;;;;;8.07;5.72;;;8.00;89.50;;;;;;4997005;28;20045;-62
2023/01/08 10:29:40;;;;;;;6.85;5.15;;;8.10;89.50;;;;;;4992640;28;20045;-60
2023/01/08 10:32:29;;;;;;;5.47;3.35;;;8.10;89.40;;;;;;4996046;28;20084;-59
2023/01/08 10:34:58;;;;;;;4.03;3.30;;;8.20;89.70;;;;;;4997945;28;20121;-61
2023/01/08 10:37:30;;;;;;;4.70;2.90;;;8.20;89.50;;;;;;4997656;28;20102;-62
2023/01/08 10:40:07;;;;;;;3.90;2.90;;;8.30;89.50;;;;;;4996990;28;20069;-59
2023/01/08 10:42:34;;;;;;;4.82;3.75;;;8.30;89.40;;;;;;4996697;28;20045;-60
2023/01/08 10:45:03;;;;;;;4.22;3.13;;;8.40;89.20;;;;;;4997150;28;20041;-62
2023/01/08 10:47:32;;;;;;;6.05;3.20;;;8.40;89.50;;;;;;5000384;28;20405;-59
2023/01/08 10:50:00;;;;;;;5.65;3.35;;;8.50;89.90;;;;;;5000332;28;20035;-60
2023/01/08 10:52:35;;;;;;;4.45;3.42;;;8.60;89.00;;;;;;5003355;28;20068;-59
2023/01/08 10:55:20;;;;;;;5.60;3.85;;;8.60;88.80;;;;;;5002338;28;20045;-59
2023/01/08 10:57:56;;;;;;;3.65;3.10;;;8.60;88.80;;;;;;5001490;28;20994;-60
2023/01/08 11:00:24;;;;;;;5.47;4.13;;;8.70;88.60;;;;;;4999110;28;20049;-60
2023/01/08 11:02:50;;;;;;;4.80;3.35;;;8.70;88.40;;;;;;4996413;28;20113;-60
2023/01/08 11:05:16;;;;;;;4.43;2.80;;;8.80;88.30;;;;;;5001237;28;20042;-61
2023/01/08 11:07:46;;;;;;;3.22;2.40;;;8.80;88.10;;;;;;5000641;28;20041;-58
2023/01/08 11:10:25;;;;;;;3.22;2.60;;;8.80;88.00;;;;;;5002383;28;20121;-60
2023/01/08 11:13:00;;;;;;;2.50;2.30;;;8.90;88.00;;;;;;5000189;28;20079;-61
2023/01/08 11:15:30;;;;;;;2.22;2.05;;;8.90;88.00;;;;;;5000582;28;20072;-60
2023/01/08 11:18:05;;;;;;;2.05;1.80;;;9.00;87.90;;;;;;5000155;28;20136;-61
2023/01/08 11:20:31;;;;;;;2.40;2.00;;;9.00;87.90;;;;;;4999758;28;20030;-58
2023/01/08 11:23:17;;;;;;;2.60;2.10;;;9.00;87.80;;;;;;5001213;28;20417;-60
2023/01/08 11:25:51;;;;;;;2.85;2.17;;;9.10;87.80;;;;;;5001498;28;20034;-61
2023/01/08 11:28:30;;;;;;;2.00;1.73;;;9.10;87.60;;;;;;5000975;28;20383;-60
2023/01/08 11:31:13;;;;;;;1.98;1.73;;;9.20;87.60;;;;;;5001148;28;20132;-61
2023/01/08 11:33:40;;;;;;;2.25;1.55;;;9.20;87.40;;;;;;5000122;28;20437;-60
2023/01/08 11:36:28;;;;;;;2.00;1.90;;;9.30;87.30;;;;;;4999938;28;20541;-60
2023/01/08 11:38:54;;;;;;;4.07;1.80;;;9.30;86.90;;;;;;5000091;28;20398;-60
2023/01/08 11:41:58;;;;;;;2.17;1.77;;;9.30;86.80;;;;;;4999969;28;20030;-60
2023/01/08 11:44:48;;;;;;;2.72;2.53;;;9.30;86.30;;;;;;4966335;28;20042;-61
2023/01/08 11:47:24;;;;;;;2.15;1.90;;;9.40;86.20;;;;;;4998196;28;20510;-62
2023/01/08 11:50:10;;;;;;;2.85;1.70;;;9.40;86.20;;;;;;5000763;28;20030;-62
2023/01/08 11:53:04;;;;;;;2.67;1.42;;;9.40;85.90;;;;;;4999824;28;20037;-62
2023/01/08 11:55:39;;;;;;;1.73;1.45;;;9.40;85.70;;;;;;4999347;28;20037;-62
2023/01/08 11:58:23;;;;;;;2.15;1.23;;;9.40;85.70;;;;;;4995524;28;20441;-62
2023/01/08 12:01:01;;;;;;;1.52;1.42;;;9.40;85.60;;;;;;4998839;28;20042;-62
2023/01/08 12:03:43;;;;;;;3.08;1.70;;;9.40;85.50;;;;;;4999447;28;20030;-62
2023/01/08 12:06:27;;;;;;;2.47;1.67;;;9.40;85.50;;;;;;5001025;28;20030;-58
2023/01/08 12:09:18;;;;;;;2.00;1.42;;;9.50;85.40;;;;;;4999562;28;20038;-62
2023/01/08 12:12:12;;;;;;;1.98;1.60;;;9.40;85.30;;;;;;5001503;28;20030;-62
2023/01/08 12:14:49;;;;;;;2.53;1.50;;;9.50;85.20;;;;;;4988868;28;20405;-61
2023/01/08 12:17:34;;;;;;;1.88;1.63;;;9.50;85.20;;;;;;4999469;28;20038;-60
2023/01/08 12:20:13;;;;;;;2.58;1.50;;;9.50;85.00;;;;;;4999268;28;20501;-61
2023/01/08 12:22:54;;;;;;;2.22;1.80;;;9.50;84.90;;;;;;4998654;28;20046;-58
2023/01/08 12:25:52;;;;;;;1.60;1.50;;;9.50;84.80;;;;;;5000047;28;20038;-58
2023/01/08 12:28:51;;;;;;;1.88;1.65;;;9.50;84.60;;;;;;4999061;28;20034;-60
2023/01/08 12:31:53;;;;;;;1.50;1.30;;;9.60;84.60;;;;;;4998734;28;20389;-61
2023/01/08 12:34:58;;;;;;;1.48;1.30;;;9.60;84.60;;;;;;4997173;28;20044;-61
2023/01/08 12:37:49;;;;;;;2.13;1.40;;;9.60;84.50;;;;;;4965353;28;20113;-62
2023/01/08 12:40:27;;;;;;;1.70;1.17;;;9.70;84.80;;;;;;4998766;28;20310;-61
2023/01/08 12:42:53;;;;;;;4.35;2.20;;;9.60;84.80;;;;;;4999498;28;20041;-60
2023/01/08 12:45:35;;;;;;;2.90;2.28;;;9.70;84.90;;;;;;4993423;28;20449;-60
2023/01/08 12:48:07;;;;;;;3.65;2.78;;;9.80;84.90;;;;;;4997565;28;20581;-61
2023/01/08 12:50:48;;;;;;;4.50;3.25;;;9.70;84.70;;;;;;4998105;28;20041;-60
2023/01/08 12:53:48;;;;;;;4.95;3.90;;;9.80;84.60;;;;;;4999984;28;20026;-60
2023/01/08 12:56:33;;;;;;;4.57;4.18;;;9.80;84.30;;;;;;4987565;28;20027;-62
2023/01/08 12:59:24;;;;;;;5.40;4.13;;;9.70;84.20;;;;;;4997214;28;20091;-61